Time;durP1;ratioP1;P1;durP2;ratioP2;P2;SDS_P1;SDS_P2;PMS_P1;PMS_P2;Temp;Humidity;BMP_temperature;BMP_pressure;BME280_temperature;BME280_humidity;BME280_pressure;Samples;Min_cycle;Max_cycle;Signal;HPM_P1;HPM_P2
2021/03/29 12:58:11;;;;;;;3.47;1.13;;;24.00;41.90;;;;;;5128497;27;20328;-75
2021/03/29 13:00:36;;;;;;;7.47;1.75;;;24.40;41.50;;;;;;5117288;28;20035;-75
2021/03/29 13:03:02;;;;;;;4.43;1.27;;;25.00;41.80;;;;;;5127936;28;20027;-72
2021/03/29 13:12:59;;;;;;;3.90;1.20;;;24.60;39.70;;;;;;5129691;27;20027;-75
2021/03/29 13:15:26;;;;;;;4.63;1.30;;;24.80;39.10;;;;;;5107460;28;20028;-76
2021/03/29 13:17:52;;;;;;;2.85;1.10;;;24.60;38.90;;;;;;5129907;28;20480;-75
2021/03/29 13:20:20;;;;;;;3.50;1.20;;;24.80;38.30;;;;;;5131100;27;20043;-76
2021/03/29 13:22:49;;;;;;;2.67;1.00;;;24.80;39.30;;;;;;5130184;28;20210;-75
2021/03/29 13:25:17;;;;;;;5.10;1.15;;;24.70;40.60;;;;;;5130800;28;20019;-75
2021/03/29 13:27:43;;;;;;;6.75;1.40;;;24.10;41.30;;;;;;5131135;27;20054;-75
2021/03/29 13:30:14;;;;;;;5.57;1.30;;;24.10;41.20;;;;;;5125745;27;20468;-75
2021/03/29 13:32:40;;;;;;;3.78;1.42;;;24.40;40.80;;;;;;5125027;28;20034;-76
2021/03/29 13:35:06;;;;;;;4.50;1.40;;;25.00;39.80;;;;;;5127657;27;20031;-75
2021/03/29 13:37:33;;;;;;;5.82;1.67;;;25.40;39.40;;;;;;5131369;27;20028;-75
2021/03/29 13:40:03;;;;;;;5.47;1.10;;;25.50;39.20;;;;;;5130720;27;20460;-75
2021/03/29 13:42:29;;;;;;;6.38;1.70;;;25.90;39.40;;;;;;5127930;28;20023;-74
2021/03/29 13:44:55;;;;;;;4.38;1.20;;;25.90;39.40;;;;;;5130493;28;20375;-75
2021/03/29 13:47:23;;;;;;;2.90;1.45;;;25.80;39.80;;;;;;5130455;28;20390;-76
2021/03/29 13:49:49;;;;;;;2.78;1.00;;;26.00;39.70;;;;;;5129504;28;20475;-75
2021/03/29 13:52:16;;;;;;;5.03;1.85;;;26.00;40.20;;;;;;5126026;27;20038;-74
2021/03/29 13:54:42;;;;;;;9.73;1.75;;;25.90;39.60;;;;;;5126931;28;20028;-74
2021/03/29 13:57:08;;;;;;;5.78;1.40;;;26.10;39.10;;;;;;5127493;27;20031;-75
2021/03/29 13:59:35;;;;;;;3.15;1.17;;;26.70;38.70;;;;;;5127459;28;20020;-75
2021/03/29 14:02:09;;;;;;;4.85;1.38;;;27.10;36.70;;;;;;5126210;27;20094;-75
2021/03/29 14:04:40;;;;;;;4.13;1.20;;;27.30;37.40;;;;;;5128197;27;20080;-75
2021/03/29 14:07:06;;;;;;;3.67;1.20;;;27.40;37.40;;;;;;5130941;27;20031;-75
2021/03/29 14:09:32;;;;;;;5.20;1.60;;;27.40;36.80;;;;;;5113965;27;20031;-75
2021/03/29 14:11:58;;;;;;;3.58;1.35;;;27.30;36.60;;;;;;5106237;28;20023;-75
2021/03/29 14:14:24;;;;;;;4.05;1.30;;;28.10;37.50;;;;;;5112599;28;20033;-75
2021/03/29 14:16:51;;;;;;;6.18;1.27;;;29.00;41.50;;;;;;5113814;28;20027;-75
2021/03/29 14:19:19;;;;;;;5.47;1.30;;;30.00;36.50;;;;;;5114256;28;20479;-75
2021/03/29 14:21:47;;;;;;;3.90;1.30;;;29.50;36.70;;;;;;5108643;28;20043;-75
2021/03/29 14:24:13;;;;;;;3.50;1.00;;;29.40;36.70;;;;;;5114207;28;20472;-75
2021/03/29 14:26:39;;;;;;;3.50;1.23;;;29.60;35.80;;;;;;5110625;28;20054;-75
2021/03/29 14:29:06;;;;;;;4.05;1.02;;;29.90;36.80;;;;;;5111275;28;20027;-76
2021/03/29 14:31:32;;;;;;;3.10;1.20;;;29.90;35.30;;;;;;5108940;28;20066;-74
2021/03/29 14:33:59;;;;;;;4.00;1.48;;;30.30;34.60;;;;;;5110256;28;20085;-76
2021/03/29 14:46:49;;;;;;;2.53;1.15;;;29.20;35.60;;;;;;5099814;27;20031;-78
2021/03/29 14:49:14;;;;;;;3.50;1.65;;;29.50;34.80;;;;;;5109658;28;20043;-75
2021/03/29 14:51:40;;;;;;;4.45;1.85;;;30.40;34.70;;;;;;5103639;28;20038;-74
2021/03/29 14:54:06;;;;;;;5.07;1.40;;;30.50;34.50;;;;;;5107982;28;20047;-75
2021/03/29 14:56:32;;;;;;;4.90;1.55;;;30.10;33.90;;;;;;5112150;28;20031;-75
2021/03/29 14:58:58;;;;;;;4.00;1.00;;;30.50;34.40;;;;;;5112639;28;20027;-76
2021/03/29 15:01:24;;;;;;;5.22;1.55;;;30.00;33.70;;;;;;5108823;28;20487;-77
2021/03/29 15:03:52;;;;;;;3.33;1.30;;;30.00;32.80;;;;;;5111380;28;20020;-75
2021/03/29 15:06:41;;;;;;;4.82;1.52;;;30.40;33.40;;;;;;5109633;28;20530;-75
2021/03/29 15:09:07;;;;;;;4.38;1.83;;;30.00;32.80;;;;;;5109709;28;20034;-76
2021/03/29 15:11:33;;;;;;;3.75;1.20;;;29.60;34.10;;;;;;5109799;28;20028;-77
2021/03/29 15:13:58;;;;;;;3.75;1.20;;;29.70;34.10;;;;;;5109344;28;20024;-76
2021/03/29 15:16:33;;;;;;;2.75;1.23;;;29.60;34.80;;;;;;5111368;28;20032;-76
2021/03/29 15:18:59;;;;;;;3.95;0.98;;;30.10;34.40;;;;;;5115621;28;20031;-76
2021/03/29 15:21:25;;;;;;;3.30;1.05;;;29.90;33.60;;;;;;5110605;28;20031;-77
2021/03/29 15:23:50;;;;;;;5.22;1.23;;;29.60;33.10;;;;;;5120900;28;20476;-74
2021/03/29 15:26:16;;;;;;;5.00;1.05;;;29.90;33.70;;;;;;5107111;28;20032;-74
2021/03/29 15:28:42;;;;;;;4.50;1.58;;;30.20;32.90;;;;;;5109192;28;20027;-75
2021/03/29 15:31:08;;;;;;;5.07;1.10;;;30.60;33.50;;;;;;5103946;28;20043;-75
2021/03/29 15:33:34;;;;;;;6.15;1.48;;;30.80;33.40;;;;;;5111795;28;20027;-74
2021/03/29 15:36:00;;;;;;;4.22;1.20;;;31.10;41.40;;;;;;5112108;28;20032;-74
2021/03/29 15:38:25;;;;;;;8.07;1.58;;;30.30;41.10;;;;;;5111477;28;20107;-76
2021/03/29 15:40:52;;;;;;;3.70;1.40;;;29.90;41.90;;;;;;5102306;27;20021;-76
2021/03/29 15:43:18;;;;;;;5.97;1.83;;;29.60;41.30;;;;;;5113320;27;20028;-77
2021/03/29 15:45:44;;;;;;;6.35;1.85;;;29.80;41.60;;;;;;5111259;28;20050;-75
2021/03/29 15:48:09;;;;;;;2.63;1.10;;;30.30;41.00;;;;;;5104738;28;20392;-76
2021/03/29 15:50:35;;;;;;;4.57;1.60;;;30.30;40.70;;;;;;5101950;28;20032;-77
2021/03/29 15:53:01;;;;;;;4.78;1.30;;;29.50;41.60;;;;;;5101677;28;20028;-77
2021/03/29 15:55:27;;;;;;;3.83;1.42;;;28.90;41.70;;;;;;5107800;28;20023;-77
2021/03/29 15:57:57;;;;;;;5.07;1.38;;;29.10;41.00;;;;;;5088809;28;20047;-77
2021/03/29 16:00:23;;;;;;;2.75;1.08;;;29.80;40.00;;;;;;5106104;28;20153;-77
2021/03/29 16:02:52;;;;;;;4.22;1.20;;;29.50;40.30;;;;;;5107792;28;20020;-78
2021/03/29 16:05:18;;;;;;;6.43;1.60;;;29.00;41.30;;;;;;5106577;28;20030;-76
2021/03/29 16:07:45;;;;;;;3.50;1.40;;;28.70;41.40;;;;;;5108127;28;20028;-76
2021/03/29 16:10:12;;;;;;;4.30;1.30;;;28.50;42.00;;;;;;5108723;28;20028;-77
2021/03/29 16:12:38;;;;;;;5.85;1.15;;;28.50;40.80;;;;;;5102021;28;20032;-75
2021/03/29 16:15:05;;;;;;;2.70;1.27;;;29.00;41.30;;;;;;5087719;28;20024;-76
2021/03/29 16:17:31;;;;;;;5.50;1.50;;;28.40;40.30;;;;;;5087222;28;20024;-78
2021/03/29 16:19:57;;;;;;;8.10;1.45;;;29.00;41.10;;;;;;5101649;28;20691;-76
2021/03/29 16:22:23;;;;;;;9.02;1.60;;;29.30;40.50;;;;;;5107188;28;20461;-76
2021/03/29 16:24:50;;;;;;;6.25;1.48;;;28.90;41.80;;;;;;5108486;28;20054;-76
2021/03/29 16:27:16;;;;;;;4.03;1.10;;;28.90;41.50;;;;;;5089326;28;20488;-76
2021/03/29 16:29:44;;;;;;;4.78;1.23;;;29.00;40.50;;;;;;5106489;28;20172;-75
2021/03/29 16:32:12;;;;;;;3.35;1.15;;;28.80;40.90;;;;;;5107697;28;20019;-75
2021/03/29 16:34:38;;;;;;;6.82;1.42;;;28.90;41.40;;;;;;5107381;28;20043;-76
2021/03/29 16:37:05;;;;;;;4.00;1.15;;;29.00;41.10;;;;;;5100844;28;20053;-77
2021/03/29 16:39:31;;;;;;;4.90;1.17;;;28.50;42.10;;;;;;5105389;28;20453;-75
2021/03/29 16:41:57;;;;;;;3.35;1.58;;;27.90;42.00;;;;;;5105995;28;20028;-76
2021/03/29 16:44:22;;;;;;;5.57;1.50;;;27.30;43.00;;;;;;5107684;28;20026;-76
2021/03/29 16:46:48;;;;;;;4.90;1.70;;;27.30;43.10;;;;;;5107803;28;20023;-75
2021/03/29 16:49:14;;;;;;;4.60;1.20;;;27.60;43.30;;;;;;5108445;28;20040;-76
2021/03/29 16:51:39;;;;;;;4.70;1.30;;;26.80;43.70;;;;;;5107872;28;20027;-74
2021/03/29 16:54:06;;;;;;;5.47;1.30;;;26.70;45.60;;;;;;5107197;28;20032;-75
2021/03/29 16:56:32;;;;;;;2.30;1.20;;;25.70;44.30;;;;;;5107486;28;20028;-76
2021/03/29 16:58:57;;;;;;;4.45;1.33;;;25.60;44.60;;;;;;5108776;28;20054;-75
2021/03/29 17:01:23;;;;;;;3.20;1.48;;;25.40;45.90;;;;;;5105874;28;20381;-75
2021/03/29 17:03:49;;;;;;;5.15;1.27;;;25.30;45.10;;;;;;5106543;28;20448;-75
2021/03/29 17:06:15;;;;;;;5.55;1.40;;;25.40;45.20;;;;;;5105822;28;20036;-75
2021/03/29 17:08:40;;;;;;;2.00;1.08;;;25.30;44.60;;;;;;5105755;28;20507;-74
2021/03/29 17:11:06;;;;;;;5.40;1.38;;;25.10;45.70;;;;;;5087762;28;20036;-74
2021/03/29 17:13:32;;;;;;;7.32;1.10;;;24.90;46.30;;;;;;5098445;28;20442;-74
2021/03/29 17:16:02;;;;;;;3.88;1.33;;;24.70;46.20;;;;;;5089683;28;20469;-74
2021/03/29 17:18:28;;;;;;;4.88;1.30;;;24.20;44.20;;;;;;5106474;28;20023;-75
2021/03/29 17:20:53;;;;;;;4.18;1.08;;;24.20;46.00;;;;;;5106939;28;20416;-76
2021/03/29 17:23:21;;;;;;;2.55;1.15;;;23.90;46.30;;;;;;5108542;28;20115;-76
2021/03/29 17:25:46;;;;;;;4.03;1.30;;;23.50;47.50;;;;;;5096247;28;20040;-75
2021/03/29 17:28:12;;;;;;;5.07;1.20;;;23.30;47.40;;;;;;5087412;28;20032;-76
2021/03/29 17:30:38;;;;;;;5.90;1.48;;;22.70;48.70;;;;;;5089566;28;20819;-75
2021/03/29 17:33:03;;;;;;;4.28;1.25;;;21.90;49.30;;;;;;5085284;28;20532;-75
2021/03/29 17:35:29;;;;;;;5.90;1.30;;;21.20;51.20;;;;;;5087578;28;20127;-74
2021/03/29 17:37:56;;;;;;;6.00;1.42;;;20.70;51.50;;;;;;5087270;28;20031;-75
2021/03/29 17:40:24;;;;;;;3.65;1.20;;;20.30;53.30;;;;;;5093562;28;20030;-74
2021/03/29 17:42:50;;;;;;;5.57;1.65;;;20.00;54.70;;;;;;5091557;28;20040;-75
2021/03/29 17:45:16;;;;;;;2.70;1.00;;;19.60;53.60;;;;;;5091414;28;20531;-75
2021/03/29 17:47:45;;;;;;;11.27;1.65;;;19.30;53.80;;;;;;5094611;28;20119;-76
2021/03/29 17:50:20;;;;;;;4.95;2.03;;;19.00;54.00;;;;;;5097974;28;20032;-73
2021/03/29 17:52:52;;;;;;;3.22;1.23;;;18.90;53.30;;;;;;5094686;28;20034;-75
2021/03/29 17:55:18;;;;;;;5.53;1.35;;;18.50;56.00;;;;;;5117748;28;20539;-77
2021/03/29 17:57:44;;;;;;;5.05;2.22;;;18.30;57.30;;;;;;5118155;28;20034;-76
2021/03/29 18:00:14;;;;;;;4.40;2.65;;;18.10;58.60;;;;;;5124623;28;20035;-76
2021/03/29 18:02:40;;;;;;;8.68;4.55;;;17.50;59.00;;;;;;5114140;28;20016;-77
2021/03/29 18:05:07;;;;;;;9.10;2.97;;;17.50;61.10;;;;;;5089682;28;20031;-75
2021/03/29 18:07:33;;;;;;;6.38;3.45;;;17.20;61.50;;;;;;5093112;28;20028;-77
2021/03/29 18:09:59;;;;;;;6.80;4.95;;;16.80;62.70;;;;;;5093886;28;20400;-75
2021/03/29 18:12:24;;;;;;;10.95;3.75;;;16.70;63.20;;;;;;5094782;28;20120;-75
2021/03/29 18:14:50;;;;;;;9.75;3.50;;;16.30;64.40;;;;;;5110664;28;20019;-77
2021/03/29 18:17:16;;;;;;;8.68;4.18;;;16.10;65.80;;;;;;5110882;28;20438;-77
2021/03/29 18:19:42;;;;;;;7.88;2.72;;;15.80;66.20;;;;;;5111450;28;20047;-74
2021/03/29 18:22:08;;;;;;;7.00;3.00;;;16.00;68.00;;;;;;5109712;28;20069;-75
2021/03/29 18:24:34;;;;;;;6.57;3.28;;;15.60;69.00;;;;;;5110509;28;20028;-78
2021/03/29 18:27:01;;;;;;;6.80;3.40;;;15.30;70.20;;;;;;5110869;28;20518;-74
2021/03/29 18:29:27;;;;;;;10.35;3.50;;;15.30;70.70;;;;;;5108445;28;20076;-74
2021/03/29 18:31:53;;;;;;;7.10;2.83;;;15.10;71.30;;;;;;5110411;28;20031;-74
2021/03/29 18:34:19;;;;;;;7.30;3.60;;;14.90;74.20;;;;;;5109674;28;20032;-76
2021/03/29 18:36:45;;;;;;;8.93;4.05;;;14.60;74.50;;;;;;5110704;28;20027;-78
2021/03/29 18:39:11;;;;;;;8.70;4.07;;;14.60;76.00;;;;;;5114011;28;20076;-80
2021/03/29 18:41:38;;;;;;;5.45;3.20;;;14.40;77.60;;;;;;5110031;28;20024;-79
2021/03/29 18:44:05;;;;;;;10.20;4.50;;;14.30;79.90;;;;;;5109694;28;20103;-80
2021/03/29 18:46:31;;;;;;;14.88;4.53;;;13.80;81.30;;;;;;5092572;28;20092;-78
2021/03/29 18:48:57;;;;;;;7.15;3.70;;;13.80;83.30;;;;;;5109888;28;20031;-78
2021/03/29 18:51:23;;;;;;;7.68;3.65;;;13.70;84.80;;;;;;5109128;28;20141;-78
2021/03/29 18:53:49;;;;;;;6.05;4.10;;;14.20;86.60;;;;;;5108696;28;20059;-78
